Time;durP1;ratioP1;P1;durP2;ratioP2;P2;SDS_P1;SDS_P2;PMS_P1;PMS_P2;Temp;Humidity;BMP_temperature;BMP_pressure;BME280_temperature;BME280_humidity;BME280_pressure;Samples;Min_cycle;Max_cycle;Signal;HPM_P1;HPM_P2
2021/01/15 00:02:21;;;;;;;2.13;1.80;;;;;;;;;;5074109;28;20220;-49
2021/01/15 00:04:47;;;;;;;2.22;2.03;;;;;;;;;;5067643;28;20211;-49
2021/01/15 00:07:13;;;;;;;2.00;1.80;;;;;;;;;;5083692;28;20170;-49
2021/01/15 00:09:39;;;;;;;2.38;2.17;;;;;;;;;;5094971;28;20199;-48
2021/01/15 00:12:06;;;;;;;1.83;1.60;;;;;;;;;;5079561;28;20179;-49
2021/01/15 00:14:32;;;;;;;2.55;2.13;;;;;;;;;;5074195;28;20182;-49
2021/01/15 00:16:57;;;;;;;2.10;1.90;;;;;;;;;;5074142;28;20185;-49
2021/01/15 00:19:23;;;;;;;2.08;1.75;;;;;;;;;;5071067;28;20174;-49
2021/01/15 00:21:49;;;;;;;2.40;2.10;;;;;;;;;;5073545;28;20193;-49
2021/01/15 00:24:16;;;;;;;2.25;1.45;;;;;;;;;;5074268;28;20201;-49
2021/01/15 00:26:43;;;;;;;2.10;1.90;;;;;;;;;;5073895;28;20557;-49
2021/01/15 00:29:10;;;;;;;1.77;1.63;;;;;;;;;;5074380;28;20288;-48
2021/01/15 00:31:37;;;;;;;1.70;1.60;;;;;;;;;;5074480;28;20185;-49
2021/01/15 00:34:04;;;;;;;2.13;1.60;;;;;;;;;;5090503;28;20236;-49
2021/01/15 00:36:30;;;;;;;1.70;1.60;;;;;;;;;;5072557;28;20225;-49
2021/01/15 00:38:56;;;;;;;1.80;1.70;;;;;;;;;;5071524;28;20186;-49
2021/01/15 00:41:22;;;;;;;2.05;1.60;;;;;;;;;;5077569;28;20174;-48
2021/01/15 00:43:48;;;;;;;2.80;2.00;;;;;;;;;;5074374;28;20258;-48
2021/01/15 00:46:27;;;;;;;2.33;1.80;;;;;;;;;;5074053;28;20216;-48
2021/01/15 00:48:54;;;;;;;1.95;1.75;;;;;;;;;;5074084;28;20615;-48
2021/01/15 00:51:20;;;;;;;2.42;1.65;;;;;;;;;;5067411;28;20201;-49
2021/01/15 00:53:46;;;;;;;13.52;2.10;;;;;;;;;;5071638;28;20184;-48
2021/01/15 00:56:16;;;;;;;2.20;2.00;;;;;;;;;;5074076;28;20175;-49
2021/01/15 00:58:42;;;;;;;1.92;1.67;;;;;;;;;;5074015;28;20217;-48
2021/01/15 01:01:11;;;;;;;1.70;1.60;;;;;;;;;;5071838;28;20210;-49
2021/01/15 01:03:37;;;;;;;2.30;2.03;;;;;;;;;;5073723;28;20205;-48
2021/01/15 01:06:08;;;;;;;2.00;1.77;;;;;;;;;;5073603;28;20546;-49
2021/01/15 01:08:34;;;;;;;2.63;2.10;;;;;;;;;;5072722;28;20427;-49
2021/01/15 01:11:00;;;;;;;4.03;1.90;;;;;;;;;;5071839;28;20177;-49
2021/01/15 01:13:26;;;;;;;2.25;1.90;;;;;;;;;;5074157;28;20463;-49
2021/01/15 01:15:52;;;;;;;2.00;1.85;;;;;;;;;;5073976;28;20181;-49
2021/01/15 01:18:18;;;;;;;1.80;1.70;;;;;;;;;;5072821;28;20190;-48
2021/01/15 01:20:44;;;;;;;1.70;1.60;;;;;;;;;;5072838;28;20209;-49
2021/01/15 01:23:10;;;;;;;1.67;1.58;;;;;;;;;;5073630;28;20218;-48
2021/01/15 01:25:36;;;;;;;2.20;1.75;;;;;;;;;;5060258;28;20206;-48
2021/01/15 01:28:02;;;;;;;1.90;1.60;;;;;;;;;;5065113;28;20448;-49
2021/01/15 01:30:28;;;;;;;1.80;1.70;;;;;;;;;;5073334;28;20193;-48
2021/01/15 01:32:54;;;;;;;1.67;1.58;;;;;;;;;;5064367;28;20210;-47
2021/01/15 01:35:20;;;;;;;1.88;1.70;;;;;;;;;;5073333;28;20193;-49
2021/01/15 01:37:46;;;;;;;1.95;1.75;;;;;;;;;;5075092;28;20183;-49
2021/01/15 01:40:15;;;;;;;2.20;1.70;;;;;;;;;;5077494;28;20327;-48
2021/01/15 01:42:41;;;;;;;1.65;1.55;;;;;;;;;;5075287;28;20592;-49
2021/01/15 01:45:08;;;;;;;2.17;1.98;;;;;;;;;;5076939;28;20285;-49
2021/01/15 01:47:34;;;;;;;2.03;1.88;;;;;;;;;;5077077;28;20561;-49
2021/01/15 01:50:00;;;;;;;1.90;1.80;;;;;;;;;;5068646;28;20174;-48
2021/01/15 01:52:26;;;;;;;2.78;1.90;;;;;;;;;;5074956;28;20539;-47
2021/01/15 01:54:52;;;;;;;2.05;1.80;;;;;;;;;;5077078;28;20167;-49
2021/01/15 01:57:18;;;;;;;1.80;1.70;;;;;;;;;;5075473;28;20179;-47
2021/01/15 01:59:44;;;;;;;1.88;1.77;;;;;;;;;;5077013;28;20178;-48
2021/01/15 02:02:10;;;;;;;2.50;1.50;;;;;;;;;;5075546;28;20202;-48
2021/01/15 02:04:36;;;;;;;3.15;1.73;;;;;;;;;;5076781;28;20287;-48
2021/01/15 02:07:02;;;;;;;2.03;1.70;;;;;;;;;;5077156;28;20477;-49
2021/01/15 02:09:46;;;;;;;2.08;1.88;;;;;;;;;;5075058;28;20256;-49
2021/01/15 02:12:31;;;;;;;2.08;1.88;;;;;;;;;;5068539;28;20554;-49
2021/01/15 02:15:10;;;;;;;2.00;1.80;;;;;;;;;;5075398;28;20441;-48
2021/01/15 02:17:40;;;;;;;1.88;1.73;;;;;;;;;;5073428;28;20177;-48
2021/01/15 02:20:09;;;;;;;2.08;1.83;;;;;;;;;;5076069;28;20434;-48
2021/01/15 02:22:48;;;;;;;1.88;1.73;;;;;;;;;;5076179;28;20178;-49
2021/01/15 02:25:23;;;;;;;2.22;1.90;;;;;;;;;;5075642;28;20198;-48
2021/01/15 02:27:52;;;;;;;3.28;1.75;;;;;;;;;;5076755;28;20193;-48
2021/01/15 02:30:37;;;;;;;1.88;1.70;;;;;;;;;;5075392;28;20174;-48
2021/01/15 02:33:07;;;;;;;1.70;1.60;;;;;;;;;;5060495;28;20228;-49
2021/01/15 02:35:36;;;;;;;2.13;1.70;;;;;;;;;;5058446;28;20513;-49
2021/01/15 02:38:05;;;;;;;1.67;1.58;;;;;;;;;;5067713;28;20261;-48
2021/01/15 02:40:33;;;;;;;1.73;1.63;;;;;;;;;;5058143;28;20191;-49
2021/01/15 02:43:01;;;;;;;1.70;1.60;;;;;;;;;;5067008;28;20194;-48
2021/01/15 02:45:27;;;;;;;1.70;1.60;;;;;;;;;;5075878;28;20206;-48
2021/01/15 02:47:54;;;;;;;1.83;1.70;;;;;;;;;;5071939;28;20182;-48
2021/01/15 02:50:21;;;;;;;1.58;1.48;;;;;;;;;;5065516;28;20182;-49
2021/01/15 02:52:48;;;;;;;1.85;1.60;;;;;;;;;;5076671;28;20178;-49
2021/01/15 02:55:14;;;;;;;2.00;1.80;;;;;;;;;;5075931;28;20573;-49
2021/01/15 02:57:40;;;;;;;1.50;1.40;;;;;;;;;;5074967;28;20527;-49
2021/01/15 03:00:08;;;;;;;2.10;1.90;;;;;;;;;;5076319;28;20167;-49
2021/01/15 03:02:47;;;;;;;2.03;1.80;;;;;;;;;;5075245;28;20213;-48
2021/01/15 03:05:15;;;;;;;1.55;1.45;;;;;;;;;;5075138;28;20601;-49
2021/01/15 03:07:43;;;;;;;1.73;1.63;;;;;;;;;;5076096;28;20189;-49
2021/01/15 03:10:09;;;;;;;1.80;1.70;;;;;;;;;;5075767;28;20213;-49
2021/01/15 03:12:37;;;;;;;2.35;2.00;;;;;;;;;;5073191;28;20178;-48
2021/01/15 03:15:04;;;;;;;2.10;2.00;;;;;;;;;;5061526;28;20490;-49
2021/01/15 03:17:31;;;;;;;1.88;1.73;;;;;;;;;;5075536;28;20618;-48
2021/01/15 03:19:57;;;;;;;1.70;1.60;;;;;;;;;;5075009;28;20182;-49
2021/01/15 03:22:24;;;;;;;1.65;1.55;;;;;;;;;;5065574;28;20186;-49
2021/01/15 03:24:54;;;;;;;2.30;2.10;;;;;;;;;;5074975;28;20455;-49
2021/01/15 03:27:20;;;;;;;1.70;1.60;;;;;;;;;;5075239;28;20565;-49
2021/01/15 03:29:46;;;;;;;1.70;1.60;;;;;;;;;;5075267;28;20179;-49
2021/01/15 03:32:12;;;;;;;1.80;1.70;;;;;;;;;;5065476;28;20179;-49
2021/01/15 03:34:38;;;;;;;1.85;1.75;;;;;;;;;;5075132;28;20245;-48
2021/01/15 03:37:05;;;;;;;1.80;1.70;;;;;;;;;;5074690;28;20232;-48
2021/01/15 03:39:31;;;;;;;1.60;1.50;;;;;;;;;;5073349;28;20194;-49
2021/01/15 03:41:57;;;;;;;2.10;1.90;;;;;;;;;;5074407;28;20178;-48
2021/01/15 03:44:23;;;;;;;1.60;1.50;;;;;;;;;;5074183;28;20573;-49
2021/01/15 03:46:53;;;;;;;1.60;1.50;;;;;;;;;;5073647;28;20225;-48
2021/01/15 03:49:19;;;;;;;2.03;1.90;;;;;;;;;;5074754;28;20265;-49
2021/01/15 03:51:45;;;;;;;2.33;1.67;;;;;;;;;;5073521;28;20185;-49
2021/01/15 03:54:11;;;;;;;1.90;1.75;;;;;;;;;;5074181;28;20185;-48
2021/01/15 03:56:37;;;;;;;2.28;1.65;;;;;;;;;;5075010;28;20254;-49
2021/01/15 03:59:03;;;;;;;1.67;1.58;;;;;;;;;;5074421;28;20200;-47
2021/01/15 04:01:29;;;;;;;1.50;1.40;;;;;;;;;;5073418;28;20221;-48
2021/01/15 04:03:55;;;;;;;1.65;1.55;;;;;;;;;;5074338;28;20186;-48
2021/01/15 04:06:27;;;;;;;1.85;1.60;;;;;;;;;;5074247;28;20178;-49
2021/01/15 04:08:53;;;;;;;1.90;1.70;;;;;;;;;;5067085;28;20182;-48
2021/01/15 04:11:20;;;;;;;1.50;1.40;;;;;;;;;;5070777;28;20182;-49
2021/01/15 04:13:46;;;;;;;1.42;1.35;;;;;;;;;;5074761;28;20166;-48
2021/01/15 04:16:16;;;;;;;1.48;1.38;;;;;;;;;;5074405;28;20564;-49
2021/01/15 04:18:42;;;;;;;1.70;1.60;;;;;;;;;;5073898;28;20174;-48
2021/01/15 04:21:08;;;;;;;3.13;1.85;;;;;;;;;;5066026;28;20582;-49
2021/01/15 04:23:35;;;;;;;1.58;1.48;;;;;;;;;;5074177;28;20182;-49
2021/01/15 04:26:04;;;;;;;2.15;1.40;;;;;;;;;;5074114;28;20205;-49
2021/01/15 04:28:30;;;;;;;1.60;1.50;;;;;;;;;;5074431;28;20178;-49
2021/01/15 04:30:56;;;;;;;1.55;1.45;;;;;;;;;;5074136;28;20223;-48
2021/01/15 04:33:22;;;;;;;1.60;1.50;;;;;;;;;;5074773;28;20173;-49
2021/01/15 04:35:48;;;;;;;1.85;1.75;;;;;;;;;;5072067;28;20175;-47
2021/01/15 04:38:14;;;;;;;1.52;1.42;;;;;;;;;;5073551;28;20201;-48
2021/01/15 04:40:40;;;;;;;1.63;1.50;;;;;;;;;;5074089;28;20475;-48
2021/01/15 04:43:06;;;;;;;1.60;1.50;;;;;;;;;;5073895;28;20253;-48
2021/01/15 04:45:32;;;;;;;1.65;1.55;;;;;;;;;;5074136;28;20202;-49
2021/01/15 04:47:58;;;;;;;1.60;1.50;;;;;;;;;;5071612;28;20166;-48
2021/01/15 04:50:24;;;;;;;2.00;1.58;;;;;;;;;;5069890;28;20574;-49
2021/01/15 04:52:51;;;;;;;2.75;1.95;;;;;;;;;;5072800;28;20163;-54
2021/01/15 04:55:19;;;;;;;2.80;1.75;;;;;;;;;;5073117;28;20192;-54
2021/01/15 04:57:48;;;;;;;4.45;1.80;;;;;;;;;;5073537;28;20270;-55
2021/01/15 05:00:15;;;;;;;2.85;1.50;;;;;;;;;;5074680;28;20174;-55
2021/01/15 05:02:45;;;;;;;2.13;1.58;;;;;;;;;;5073264;28;20186;-55
2021/01/15 05:05:18;;;;;;;1.48;1.38;;;;;;;;;;5072138;28;20198;-55
2021/01/15 05:07:49;;;;;;;1.70;1.60;;;;;;;;;;5070018;28;20178;-55
2021/01/15 05:10:16;;;;;;;1.70;1.60;;;;;;;;;;5073901;28;20171;-55
2021/01/15 05:12:43;;;;;;;1.80;1.67;;;;;;;;;;5075056;28;20163;-55
2021/01/15 05:15:11;;;;;;;1.88;1.58;;;;;;;;;;5078205;28;20449;-55
2021/01/15 05:17:41;;;;;;;1.90;1.70;;;;;;;;;;5077298;28;20239;-55
2021/01/15 05:20:08;;;;;;;1.60;1.50;;;;;;;;;;5077587;28;20549;-54
2021/01/15 05:22:34;;;;;;;2.35;1.52;;;;;;;;;;5077275;28;20549;-54
2021/01/15 05:25:00;;;;;;;3.33;1.50;;;;;;;;;;5077533;28;20210;-54
2021/01/15 05:27:39;;;;;;;2.72;1.88;;;;;;;;;;5077597;28;20247;-54
2021/01/15 05:30:14;;;;;;;4.97;2.50;;;;;;;;;;5058001;28;20480;-54
2021/01/15 05:32:40;;;;;;;7.88;2.85;;;;;;;;;;5067093;28;20166;-54
2021/01/15 05:35:06;;;;;;;11.23;3.10;;;;;;;;;;5077525;28;20200;-54
2021/01/15 05:37:33;;;;;;;10.95;3.65;;;;;;;;;;5077416;28;20189;-54
2021/01/15 05:40:02;;;;;;;11.75;3.55;;;;;;;;;;5077056;28;20201;-55
2021/01/15 05:42:28;;;;;;;7.60;3.58;;;;;;;;;;5073872;28;20209;-54
2021/01/15 05:45:12;;;;;;;11.45;3.50;;;;;;;;;;5075555;28;20214;-54
2021/01/15 05:47:44;;;;;;;7.68;3.17;;;;;;;;;;5069403;28;20262;-55
2021/01/15 05:50:14;;;;;;;11.05;3.53;;;;;;;;;;5076823;28;20532;-55
2021/01/15 05:52:56;;;;;;;9.07;3.83;;;;;;;;;;5080130;28;20182;-54
2021/01/15 05:55:23;;;;;;;7.63;3.40;;;;;;;;;;5076874;28;20232;-54
2021/01/15 05:57:50;;;;;;;10.65;3.60;;;;;;;;;;5076728;28;20534;-55
2021/01/15 06:00:25;;;;;;;8.57;3.45;;;;;;;;;;5075846;28;20183;-55
2021/01/15 06:02:55;;;;;;;6.88;3.22;;;;;;;;;;5071732;28;20609;-54
2021/01/15 06:05:22;;;;;;;8.15;3.17;;;;;;;;;;5061111;28;20194;-54
2021/01/15 06:07:55;;;;;;;5.80;2.60;;;;;;;;;;5077004;28;20449;-54
2021/01/15 06:10:21;;;;;;;7.28;3.10;;;;;;;;;;5077220;28;20171;-54
2021/01/15 06:12:47;;;;;;;5.50;2.65;;;;;;;;;;5077185;28;20189;-54
2021/01/15 06:15:13;;;;;;;7.82;3.10;;;;;;;;;;5059894;28;20183;-54
2021/01/15 06:17:40;;;;;;;7.30;3.03;;;;;;;;;;5064955;28;20253;-54
2021/01/15 06:20:07;;;;;;;8.60;3.78;;;;;;;;;;5076316;28;20265;-54
2021/01/15 06:22:49;;;;;;;5.72;2.67;;;;;;;;;;5075993;28;20181;-54
2021/01/15 06:25:24;;;;;;;7.53;2.90;;;;;;;;;;5076398;28;20190;-54
2021/01/15 06:27:58;;;;;;;8.48;3.08;;;;;;;;;;5075832;28;20264;-54
2021/01/15 06:30:28;;;;;;;6.30;2.42;;;;;;;;;;5070557;28;20171;-54
2021/01/15 06:32:55;;;;;;;4.13;2.83;;;;;;;;;;5074819;28;20269;-54
2021/01/15 06:35:24;;;;;;;6.22;2.80;;;;;;;;;;5075854;28;20503;-54
2021/01/15 06:37:59;;;;;;;7.25;2.70;;;;;;;;;;5074611;28;20212;-54
2021/01/15 06:40:35;;;;;;;5.07;2.63;;;;;;;;;;5075101;28;20181;-54
2021/01/15 06:43:08;;;;;;;7.03;3.00;;;;;;;;;;5071457;28;20213;-54
2021/01/15 06:45:45;;;;;;;6.20;2.40;;;;;;;;;;5074231;28;20218;-54
2021/01/15 06:48:21;;;;;;;4.47;2.55;;;;;;;;;;5074597;28;20202;-54
2021/01/15 06:50:48;;;;;;;6.75;2.42;;;;;;;;;;5075781;28;20170;-54
2021/01/15 06:53:19;;;;;;;5.05;2.88;;;;;;;;;;5076025;28;20182;-54
2021/01/15 06:55:46;;;;;;;5.53;2.50;;;;;;;;;;5069569;28;20172;-54
2021/01/15 06:58:25;;;;;;;4.93;2.70;;;;;;;;;;5055839;28;20171;-54
2021/01/15 07:01:11;;;;;;;4.05;2.78;;;;;;;;;;5056311;28;20808;-54
2021/01/15 07:03:55;;;;;;;4.22;2.58;;;;;;;;;;5070788;28;20218;-54
2021/01/15 07:06:27;;;;;;;4.05;2.13;;;;;;;;;;5058676;28;20243;-54
2021/01/15 07:08:54;;;;;;;4.53;2.38;;;;;;;;;;5064251;28;20206;-54
2021/01/15 07:11:22;;;;;;;3.95;2.53;;;;;;;;;;5074741;28;20250;-54
2021/01/15 07:13:51;;;;;;;4.10;2.35;;;;;;;;;;5075229;28;20257;-54
2021/01/15 07:16:24;;;;;;;5.38;2.83;;;;;;;;;;5075404;28;20600;-54
2021/01/15 07:18:55;;;;;;;3.72;2.67;;;;;;;;;;5074374;28;20170;-54
2021/01/15 07:21:22;;;;;;;4.20;2.53;;;;;;;;;;5075204;28;20589;-54
2021/01/15 07:23:54;;;;;;;6.43;2.60;;;;;;;;;;5072409;28;20189;-54
2021/01/15 07:26:23;;;;;;;5.68;2.60;;;;;;;;;;5064076;28;20183;-54
2021/01/15 07:28:57;;;;;;;3.90;2.35;;;;;;;;;;5074622;28;20174;-54
2021/01/15 07:31:25;;;;;;;4.53;2.20;;;;;;;;;;5055866;28;20443;-54
2021/01/15 07:33:54;;;;;;;2.90;2.08;;;;;;;;;;5056173;28;20258;-54
2021/01/15 07:36:32;;;;;;;3.53;2.28;;;;;;;;;;5072693;28;20553;-54
2021/01/15 07:39:05;;;;;;;5.78;2.40;;;;;;;;;;5074673;28;20209;-54
2021/01/15 07:41:38;;;;;;;4.88;2.67;;;;;;;;;;5073432;28;20209;-54
2021/01/15 07:44:24;;;;;;;3.95;2.55;;;;;;;;;;5074868;28;20611;-54
2021/01/15 07:46:59;;;;;;;4.55;2.40;;;;;;;;;;5074026;28;20605;-54
2021/01/15 07:49:25;;;;;;;4.57;2.60;;;;;;;;;;5074118;28;20253;-54
2021/01/15 07:52:07;;;;;;;5.03;2.40;;;;;;;;;;5074918;28;20181;-54
2021/01/15 07:54:57;;;;;;;3.92;2.33;;;;;;;;;;5074588;28;20272;-54
2021/01/15 07:57:23;;;;;;;2.33;1.88;;;;;;;;;;5074880;28;20277;-54
2021/01/15 07:59:49;;;;;;;2.72;2.05;;;;;;;;;;5074367;28;20261;-54
2021/01/15 08:02:19;;;;;;;3.08;2.38;;;;;;;;;;5073368;28;20174;-54
2021/01/15 08:04:45;;;;;;;4.10;2.55;;;;;;;;;;5059713;28;20230;-54
2021/01/15 08:07:22;;;;;;;3.47;2.40;;;;;;;;;;5070329;28;20186;-54
2021/01/15 08:09:48;;;;;;;2.92;2.30;;;;;;;;;;5066460;28;20259;-54
2021/01/15 08:12:13;;;;;;;2.10;1.90;;;;;;;;;;5067898;28;20705;-54
2021/01/15 08:14:39;;;;;;;3.38;2.20;;;;;;;;;;5074329;28;20181;-54
2021/01/15 08:17:14;;;;;;;2.70;2.30;;;;;;;;;;5074679;28;20178;-54
2021/01/15 08:19:41;;;;;;;3.03;1.90;;;;;;;;;;5071389;28;20173;-54
2021/01/15 08:22:08;;;;;;;2.25;2.05;;;;;;;;;;5061905;28;20228;-54
2021/01/15 08:24:44;;;;;;;2.22;1.80;;;;;;;;;;5074199;28;20202;-54
2021/01/15 08:27:15;;;;;;;3.85;2.20;;;;;;;;;;5074573;28;20166;-54
2021/01/15 08:29:41;;;;;;;3.85;2.55;;;;;;;;;;5074614;28;20174;-54
2021/01/15 08:32:08;;;;;;;2.47;2.10;;;;;;;;;;5074627;28;20471;-54
2021/01/15 08:34:34;;;;;;;3.75;2.20;;;;;;;;;;5062757;28;20187;-54
2021/01/15 08:37:01;;;;;;;2.60;2.40;;;;;;;;;;5060620;28;20264;-54
2021/01/15 08:39:27;;;;;;;2.78;2.15;;;;;;;;;;5072631;28;20182;-54
2021/01/15 08:41:54;;;;;;;3.28;2.35;;;;;;;;;;5073244;28;20244;-54
2021/01/15 08:44:23;;;;;;;2.60;2.33;;;;;;;;;;5072700;28;20206;-54
2021/01/15 08:46:50;;;;;;;2.28;2.00;;;;;;;;;;5075758;28;20166;-54
2021/01/15 08:49:16;;;;;;;2.58;2.22;;;;;;;;;;5077834;28;20549;-54
2021/01/15 08:51:42;;;;;;;3.88;2.65;;;;;;;;;;5081083;28;20178;-54
2021/01/15 08:54:09;;;;;;;2.83;2.20;;;;;;;;;;5064636;28;20205;-54
2021/01/15 08:56:46;;;;;;;2.13;1.92;;;;;;;;;;5077681;28;20170;-54
2021/01/15 08:59:13;;;;;;;2.50;2.10;;;;;;;;;;5081271;28;20173;-54
2021/01/15 09:01:40;;;;;;;2.20;1.92;;;;;;;;;;5081069;28;20560;-54
2021/01/15 09:04:10;;;;;;;2.92;2.38;;;;;;;;;;5080625;28;20520;-54
2021/01/15 09:06:38;;;;;;;2.08;1.85;;;;;;;;;;5070742;28;20178;-54
2021/01/15 09:09:13;;;;;;;3.05;2.00;;;;;;;;;;5061241;28;20159;-54
2021/01/15 09:11:42;;;;;;;2.20;2.00;;;;;;;;;;5061192;28;20167;-54
2021/01/15 09:14:12;;;;;;;2.28;2.00;;;;;;;;;;5060924;28;20531;-54
2021/01/15 09:16:39;;;;;;;2.80;2.22;;;;;;;;;;5080225;28;20166;-54
2021/01/15 09:19:14;;;;;;;2.67;1.95;;;;;;;;;;5070692;28;20243;-54
2021/01/15 09:21:47;;;;;;;3.17;1.90;;;;;;;;;;5072431;28;20538;-54
2021/01/15 09:24:14;;;;;;;2.58;2.38;;;;;;;;;;5060814;28;20229;-54
2021/01/15 09:26:40;;;;;;;3.03;2.00;;;;;;;;;;5077288;28;20182;-54
2021/01/15 09:29:06;;;;;;;2.67;1.83;;;;;;;;;;5080320;28;20171;-54
2021/01/15 09:31:32;;;;;;;3.90;2.38;;;;;;;;;;5079480;28;20250;-54
2021/01/15 09:33:58;;;;;;;2.03;1.83;;;;;;;;;;5069435;28;20171;-54
2021/01/15 09:36:25;;;;;;;3.05;2.00;;;;;;;;;;5080349;28;20479;-54
2021/01/15 09:38:52;;;;;;;3.08;2.03;;;;;;;;;;5080967;28;20201;-54
2021/01/15 09:41:18;;;;;;;3.85;2.03;;;;;;;;;;5062305;28;20440;-54
2021/01/15 09:43:44;;;;;;;3.13;1.98;;;;;;;;;;5075536;28;20186;-54
2021/01/15 09:46:20;;;;;;;3.15;1.90;;;;;;;;;;5077320;28;20225;-54
2021/01/15 09:48:46;;;;;;;2.50;1.90;;;;;;;;;;5068073;28;20253;-54
2021/01/15 09:51:12;;;;;;;2.47;1.90;;;;;;;;;;5073919;28;20594;-54
2021/01/15 09:53:38;;;;;;;3.13;1.90;;;;;;;;;;5080910;28;20166;-54
2021/01/15 09:56:04;;;;;;;3.63;2.13;;;;;;;;;;5076291;28;20187;-54
2021/01/15 09:58:30;;;;;;;2.22;1.67;;;;;;;;;;5070310;28;20186;-54
2021/01/15 10:00:56;;;;;;;2.72;2.17;;;;;;;;;;5074040;28;20190;-54
2021/01/15 10:03:22;;;;;;;5.20;2.13;;;;;;;;;;5066073;28;20237;-54
2021/01/15 10:05:48;;;;;;;1.88;1.70;;;;;;;;;;5076118;28;20217;-54
2021/01/15 10:08:14;;;;;;;2.13;1.90;;;;;;;;;;5076859;28;20182;-54
2021/01/15 10:10:40;;;;;;;2.35;2.00;;;;;;;;;;5076550;28;20546;-55
2021/01/15 10:13:06;;;;;;;2.08;1.80;;;;;;;;;;5068813;28;20186;-54
2021/01/15 10:15:32;;;;;;;2.20;1.83;;;;;;;;;;5068033;28;20178;-54
2021/01/15 10:17:58;;;;;;;3.17;1.90;;;;;;;;;;5075248;28;20566;-54
2021/01/15 10:20:25;;;;;;;2.88;1.88;;;;;;;;;;5075824;28;20182;-54
2021/01/15 10:22:52;;;;;;;2.65;1.85;;;;;;;;;;5076622;28;20208;-54
2021/01/15 10:25:19;;;;;;;2.28;1.85;;;;;;;;;;5072872;28;20199;-54
2021/01/15 10:27:45;;;;;;;2.15;1.80;;;;;;;;;;5065407;28;20179;-54
2021/01/15 10:30:11;;;;;;;1.98;1.73;;;;;;;;;;5072809;28;20457;-54
2021/01/15 10:32:37;;;;;;;1.95;1.75;;;;;;;;;;5067123;28;20202;-54
2021/01/15 10:35:04;;;;;;;1.50;1.40;;;;;;;;;;5075820;28;20264;-54
2021/01/15 10:37:31;;;;;;;1.83;1.73;;;;;;;;;;5075924;28;20417;-54
2021/01/15 10:39:57;;;;;;;1.75;1.65;;;;;;;;;;5062264;28;20191;-54
2021/01/15 10:42:27;;;;;;;1.75;1.65;;;;;;;;;;5062627;28;20277;-54
2021/01/15 10:44:53;;;;;;;1.60;1.50;;;;;;;;;;5075835;28;20224;-54
2021/01/15 10:47:19;;;;;;;1.88;1.50;;;;;;;;;;5065236;28;20205;-54
2021/01/15 10:49:44;;;;;;;2.00;1.73;;;;;;;;;;5075247;28;20178;-54
2021/01/15 10:52:12;;;;;;;2.25;1.90;;;;;;;;;;5084153;28;20174;-54
2021/01/15 10:54:38;;;;;;;1.70;1.58;;;;;;;;;;5094304;28;20466;-54
2021/01/15 10:57:04;;;;;;;2.05;1.70;;;;;;;;;;5075728;28;20263;-54
2021/01/15 10:59:31;;;;;;;2.33;1.70;;;;;;;;;;5066390;28;20314;-54
2021/01/15 11:01:57;;;;;;;2.28;1.70;;;;;;;;;;5071835;28;20167;-54
2021/01/15 11:04:22;;;;;;;2.20;1.70;;;;;;;;;;5080364;28;20221;-54
2021/01/15 11:06:53;;;;;;;1.50;1.40;;;;;;;;;;5060680;28;20179;-54
2021/01/15 11:09:19;;;;;;;3.17;1.42;;;;;;;;;;5069255;28;20186;-54
2021/01/15 11:11:52;;;;;;;2.70;1.75;;;;;;;;;;5068635;28;20589;-54
2021/01/15 11:14:19;;;;;;;1.73;1.50;;;;;;;;;;5074983;28;20534;-54
2021/01/15 11:16:45;;;;;;;1.92;1.77;;;;;;;;;;5075818;28;20174;-54
2021/01/15 11:19:11;;;;;;;2.15;1.80;;;;;;;;;;5073928;28;20178;-54
2021/01/15 11:21:37;;;;;;;1.70;1.60;;;;;;;;;;5075296;28;20224;-54
2021/01/15 11:24:04;;;;;;;3.90;1.77;;;;;;;;;;5075338;28;20210;-54
2021/01/15 11:26:31;;;;;;;1.70;1.50;;;;;;;;;;5075279;28;20550;-54
2021/01/15 11:28:58;;;;;;;3.38;1.77;;;;;;;;;;5075144;28;20402;-54
2021/01/15 11:31:24;;;;;;;3.63;1.80;;;;;;;;;;5075718;28;20543;-54
2021/01/15 11:33:51;;;;;;;2.58;1.85;;;;;;;;;;5075545;28;20209;-54
2021/01/15 11:36:17;;;;;;;3.35;2.00;;;;;;;;;;5073192;28;20214;-54
2021/01/15 11:38:44;;;;;;;6.40;1.85;;;;;;;;;;5062091;28;20182;-54
2021/01/15 11:41:12;;;;;;;5.55;1.63;;;;;;;;;;5058183;28;20225;-54
2021/01/15 11:43:39;;;;;;;3.42;1.80;;;;;;;;;;5072501;28;20216;-54
2021/01/15 11:46:05;;;;;;;5.20;1.98;;;;;;;;;;5072579;28;20244;-54
2021/01/15 11:48:32;;;;;;;3.45;2.03;;;;;;;;;;5073159;28;20523;-54
2021/01/15 11:50:58;;;;;;;3.00;1.80;;;;;;;;;;5060764;28;20434;-54
2021/01/15 11:53:24;;;;;;;4.57;2.05;;;;;;;;;;5076614;28;20281;-54
2021/01/15 11:55:51;;;;;;;3.20;1.95;;;;;;;;;;5067908;28;20171;-54
2021/01/15 11:58:17;;;;;;;4.53;1.85;;;;;;;;;;5064692;28;20175;-54
2021/01/15 12:00:43;;;;;;;3.25;1.85;;;;;;;;;;5069880;28;20179;-54
2021/01/15 12:03:10;;;;;;;2.75;2.00;;;;;;;;;;5071114;28;20182;-54
2021/01/15 12:05:42;;;;;;;4.03;2.03;;;;;;;;;;5068400;28;20206;-54
2021/01/15 12:08:08;;;;;;;3.13;1.65;;;;;;;;;;5073568;28;20171;-54
2021/01/15 12:10:34;;;;;;;5.78;1.90;;;;;;;;;;5072495;28;20187;-54
2021/01/15 12:13:00;;;;;;;6.25;2.20;;;;;;;;;;5073296;28;20415;-54
2021/01/15 12:15:27;;;;;;;2.95;1.75;;;;;;;;;;5067648;28;20182;-54
2021/01/15 12:17:53;;;;;;;4.80;2.08;;;;;;;;;;5067747;28;20588;-54
2021/01/15 12:20:19;;;;;;;6.53;2.13;;;;;;;;;;5073182;28;20178;-54
2021/01/15 12:22:45;;;;;;;7.47;2.50;;;;;;;;;;5073044;28;20175;-54
2021/01/15 12:25:11;;;;;;;5.32;2.67;;;;;;;;;;5072300;28;20501;-54
2021/01/15 12:27:38;;;;;;;4.65;2.28;;;;;;;;;;5073828;28;20475;-54
2021/01/15 12:30:05;;;;;;;9.48;2.67;;;;;;;;;;5074250;28;20349;-54
2021/01/15 12:32:31;;;;;;;14.95;5.07;;;;;;;;;;5074664;28;20166;-54
2021/01/15 12:34:57;;;;;;;20.92;6.47;;;;;;;;;;5074092;28;20415;-54
2021/01/15 12:37:24;;;;;;;36.92;8.98;;;;;;;;;;5074501;28;20177;-54
2021/01/15 12:39:50;;;;;;;49.17;11.68;;;;;;;;;;5062284;28;20199;-54
2021/01/15 12:42:16;;;;;;;59.58;15.05;;;;;;;;;;5062852;28;20197;-54
2021/01/15 12:44:42;;;;;;;74.07;17.88;;;;;;;;;;5054413;28;20203;-54
2021/01/15 12:47:07;;;;;;;75.18;18.10;;;;;;;;;;5073513;28;20224;-54
2021/01/15 12:49:33;;;;;;;84.47;19.55;;;;;;;;;;5072479;28;20167;-54
2021/01/15 12:51:59;;;;;;;68.55;19.92;;;;;;;;;;5067761;28;20249;-54
2021/01/15 12:54:25;;;;;;;92.10;21.33;;;;;;;;;;5073352;28;20277;-50
2021/01/15 12:56:51;;;;;;;73.78;19.55;;;;;;;;;;5073847;28;20277;-50
2021/01/15 12:59:17;;;;;;;73.03;19.13;;;;;;;;;;5072885;28;20182;-50
2021/01/15 13:01:43;;;;;;;54.05;16.27;;;;;;;;;;5072170;28;20192;-50
2021/01/15 13:04:10;;;;;;;46.13;12.65;;;;;;;;;;5053857;28;20164;-50
2021/01/15 13:06:39;;;;;;;39.13;10.95;;;;;;;;;;5061021;28;20214;-50
2021/01/15 13:09:06;;;;;;;42.28;11.05;;;;;;;;;;5071401;28;20450;-50
2021/01/15 13:11:32;;;;;;;33.20;10.23;;;;;;;;;;5073510;28;20166;-50
2021/01/15 13:13:58;;;;;;;36.65;11.25;;;;;;;;;;5071769;28;20621;-50
2021/01/15 13:16:27;;;;;;;38.88;11.18;;;;;;;;;;5074043;28;20170;-50
2021/01/15 13:18:57;;;;;;;33.22;10.43;;;;;;;;;;5073066;28;20491;-50
2021/01/15 13:21:23;;;;;;;31.90;10.85;;;;;;;;;;5073467;28;20190;-50
2021/01/15 13:23:49;;;;;;;32.78;9.98;;;;;;;;;;5074018;28;20257;-50
2021/01/15 13:26:16;;;;;;;33.35;10.85;;;;;;;;;;5073614;28;20206;-50
2021/01/15 13:28:42;;;;;;;27.80;9.20;;;;;;;;;;5073220;28;20175;-50
2021/01/15 13:31:08;;;;;;;26.23;9.02;;;;;;;;;;5063896;28;20186;-50
2021/01/15 13:33:35;;;;;;;27.55;9.85;;;;;;;;;;5070944;28;20460;-50
2021/01/15 13:36:01;;;;;;;32.30;9.70;;;;;;;;;;5077198;28;20817;-50
2021/01/15 13:38:27;;;;;;;28.50;8.90;;;;;;;;;;5076992;28;20190;-50
2021/01/15 13:40:53;;;;;;;30.42;9.05;;;;;;;;;;5077935;28;20185;-50
2021/01/15 13:43:20;;;;;;;24.80;9.48;;;;;;;;;;5077641;28;20186;-50
2021/01/15 13:45:46;;;;;;;24.65;8.32;;;;;;;;;;5077432;28;20236;-50
2021/01/15 13:48:12;;;;;;;28.58;8.50;;;;;;;;;;5075233;28;20181;-50
2021/01/15 13:50:51;;;;;;;26.67;8.85;;;;;;;;;;5065982;28;20704;-50
2021/01/15 13:53:24;;;;;;;24.58;7.53;;;;;;;;;;5092483;28;20253;-50
2021/01/15 13:55:50;;;;;;;21.90;7.75;;;;;;;;;;5097487;28;20174;-50
2021/01/15 13:58:16;;;;;;;22.30;7.85;;;;;;;;;;5083614;28;20186;-50
2021/01/15 14:00:42;;;;;;;23.15;8.38;;;;;;;;;;5077825;28;20448;-50
2021/01/15 14:03:08;;;;;;;19.95;7.22;;;;;;;;;;5076035;28;20179;-50
2021/01/15 14:05:34;;;;;;;15.10;7.32;;;;;;;;;;5067977;28;20600;-50
2021/01/15 14:08:00;;;;;;;23.17;6.95;;;;;;;;;;5077161;28;20181;-50
2021/01/15 14:10:26;;;;;;;15.93;6.55;;;;;;;;;;5077512;28;20166;-50
2021/01/15 14:12:53;;;;;;;20.30;7.43;;;;;;;;;;5077324;28;20609;-50
2021/01/15 14:15:19;;;;;;;17.08;6.15;;;;;;;;;;5077047;28;20170;-50
2021/01/15 14:17:45;;;;;;;17.15;6.72;;;;;;;;;;5076735;28;20217;-50
2021/01/15 14:20:11;;;;;;;14.05;5.82;;;;;;;;;;5074327;28;20206;-50
2021/01/15 14:22:38;;;;;;;15.35;6.20;;;;;;;;;;5068807;28;20290;-50
2021/01/15 14:25:07;;;;;;;20.13;6.40;;;;;;;;;;5075088;28;20305;-50
2021/01/15 14:27:33;;;;;;;15.70;6.07;;;;;;;;;;5076376;28;20561;-50
2021/01/15 14:29:59;;;;;;;13.68;5.80;;;;;;;;;;5076703;28;20183;-50
2021/01/15 14:32:25;;;;;;;15.18;5.63;;;;;;;;;;5077081;28;20186;-50
2021/01/15 14:34:52;;;;;;;16.20;5.95;;;;;;;;;;5076397;28;20167;-50
2021/01/15 14:37:18;;;;;;;12.95;5.35;;;;;;;;;;5075718;28;20175;-50
2021/01/15 14:39:44;;;;;;;13.38;5.38;;;;;;;;;;5076590;28;20198;-50
2021/01/15 14:42:16;;;;;;;13.02;5.05;;;;;;;;;;5076682;28;20175;-50
2021/01/15 14:44:42;;;;;;;12.23;5.43;;;;;;;;;;5075671;28;20195;-50
2021/01/15 14:47:08;;;;;;;14.02;5.43;;;;;;;;;;5075911;28;20183;-50